Time;durP1;ratioP1;P1;durP2;ratioP2;P2;SDS_P1;SDS_P2;PMS_P1;PMS_P2;Temp;Humidity;BMP_temperature;BMP_pressure;BME280_temperature;BME280_humidity;BME280_pressure;Samples;Min_cycle;Max_cycle;Signal;HPM_P1;HPM_P2
2022/10/11 00:01:53;;;;;;;6.07;1.53;;;9.80;99.90;;;;;;5052135;28;20245;-81
2022/10/11 00:04:20;;;;;;;6.37;2.00;;;9.80;99.90;;;;;;5052153;28;20198;-80
2022/10/11 00:06:47;;;;;;;5.37;1.53;;;9.80;99.90;;;;;;5052148;28;20488;-80
2022/10/11 00:09:14;;;;;;;6.30;1.77;;;9.80;99.90;;;;;;5052635;28;20333;-80
2022/10/11 00:11:42;;;;;;;6.23;2.03;;;9.80;99.90;;;;;;5052191;28;20205;-81
2022/10/11 00:14:09;;;;;;;10.53;1.70;;;9.80;99.90;;;;;;5052701;28;20300;-81
2022/10/11 00:16:39;;;;;;;8.70;1.90;;;9.80;99.90;;;;;;5051739;28;20599;-81
2022/10/11 00:19:06;;;;;;;5.37;1.50;;;9.80;99.90;;;;;;5051687;28;20524;-82
2022/10/11 00:21:33;;;;;;;6.37;1.60;;;9.80;99.90;;;;;;5052715;28;20293;-82
2022/10/11 00:24:00;;;;;;;7.90;2.43;;;9.80;99.90;;;;;;5052480;28;20218;-80
2022/10/11 00:26:27;;;;;;;12.90;2.17;;;9.80;99.90;;;;;;5051851;28;20202;-80
2022/10/11 00:28:54;;;;;;;10.20;1.97;;;9.80;99.90;;;;;;5053034;28;20288;-80
2022/10/11 00:31:21;;;;;;;7.53;2.03;;;9.90;99.90;;;;;;5052530;28;20206;-80
2022/10/11 00:33:49;;;;;;;7.87;1.60;;;9.90;99.90;;;;;;5066861;28;20211;-80
2022/10/11 00:36:17;;;;;;;9.40;2.07;;;9.90;99.90;;;;;;5072505;28;20244;-81
2022/10/11 00:38:44;;;;;;;10.17;2.37;;;9.90;99.90;;;;;;5071549;28;20208;-80
2022/10/11 00:41:11;;;;;;;9.83;2.33;;;9.90;99.90;;;;;;5071829;28;20631;-80
2022/10/11 00:43:39;;;;;;;9.60;1.90;;;9.90;99.90;;;;;;5063847;28;20201;-81
2022/10/11 00:46:23;;;;;;;8.23;2.60;;;9.90;99.90;;;;;;5062872;28;20288;-80
2022/10/11 00:48:56;;;;;;;6.93;1.40;;;9.90;99.90;;;;;;5072741;28;20612;-80
2022/10/11 00:51:36;;;;;;;6.17;1.50;;;9.90;99.90;;;;;;5075044;28;20197;-80
2022/10/11 00:54:04;;;;;;;5.50;1.33;;;9.90;99.90;;;;;;5066177;28;20198;-80
2022/10/11 00:56:35;;;;;;;6.17;1.90;;;9.80;99.90;;;;;;5056951;28;20240;-79
2022/10/11 00:59:05;;;;;;;3.07;1.53;;;9.80;99.90;;;;;;5056800;28;20670;-79
2022/10/11 01:01:32;;;;;;;3.83;1.70;;;9.80;99.90;;;;;;5055332;28;20252;-81
2022/10/11 01:04:02;;;;;;;4.40;1.50;;;9.70;99.90;;;;;;5055930;28;20202;-81
2022/10/11 01:06:30;;;;;;;4.97;1.80;;;9.70;99.90;;;;;;5055759;28;20289;-81
2022/10/11 01:08:57;;;;;;;8.03;1.50;;;9.60;99.90;;;;;;5054995;28;20664;-81
2022/10/11 01:11:27;;;;;;;6.67;1.70;;;9.60;99.90;;;;;;5055675;28;20194;-80
2022/10/11 01:14:10;;;;;;;5.03;1.40;;;9.60;99.90;;;;;;5071457;28;20201;-81
2022/10/11 01:16:43;;;;;;;4.07;1.30;;;9.60;99.90;;;;;;5067151;28;20216;-81
2022/10/11 01:19:35;;;;;;;4.93;1.37;;;9.60;99.90;;;;;;5055767;28;20198;-81
2022/10/11 01:22:15;;;;;;;7.03;1.70;;;9.50;99.90;;;;;;5055617;28;20442;-81
2022/10/11 01:25:12;;;;;;;6.23;1.60;;;9.50;99.90;;;;;;5055826;28;20185;-80
2022/10/11 01:27:46;;;;;;;4.23;1.67;;;9.40;99.90;;;;;;5054341;28;20208;-81
2022/10/11 01:30:22;;;;;;;7.60;2.03;;;9.40;99.90;;;;;;5055237;28;20202;-81
2022/10/11 01:32:55;;;;;;;4.93;1.70;;;9.40;99.90;;;;;;5055897;28;20193;-82
2022/10/11 01:35:30;;;;;;;5.70;2.37;;;9.40;99.90;;;;;;5055384;28;20225;-80
2022/10/11 01:38:02;;;;;;;6.37;2.03;;;9.40;99.90;;;;;;5054906;28;20678;-80
2022/10/11 01:40:33;;;;;;;5.63;1.93;;;9.30;99.90;;;;;;5055190;28;20194;-81
2022/10/11 01:43:01;;;;;;;5.10;2.00;;;9.30;99.90;;;;;;5055333;28;20193;-81
2022/10/11 01:45:31;;;;;;;6.63;1.57;;;9.30;99.90;;;;;;5055871;28;20206;-80
2022/10/11 01:48:06;;;;;;;8.73;1.87;;;9.30;99.90;;;;;;5057565;28;20205;-80
2022/10/11 01:50:40;;;;;;;9.50;2.20;;;9.20;99.90;;;;;;5074793;28;20270;-81
2022/10/11 01:53:31;;;;;;;7.37;1.67;;;9.20;99.90;;;;;;5065690;28;20197;-80
2022/10/11 01:56:09;;;;;;;5.03;1.80;;;9.20;99.90;;;;;;5041777;28;20774;-80
2022/10/11 01:58:50;;;;;;;8.30;1.70;;;9.20;99.90;;;;;;5054521;28;20203;-80
2022/10/11 02:01:27;;;;;;;7.27;1.50;;;9.20;99.90;;;;;;5054614;28;20612;-80
2022/10/11 02:04:03;;;;;;;5.77;1.90;;;9.20;99.90;;;;;;5054610;28;20202;-80
2022/10/11 02:06:35;;;;;;;5.13;1.63;;;9.20;99.90;;;;;;5054177;28;20583;-81
2022/10/11 02:09:11;;;;;;;5.03;1.20;;;9.20;99.90;;;;;;5054716;28;20317;-81
2022/10/11 02:11:39;;;;;;;6.83;2.43;;;9.20;99.90;;;;;;5053982;28;20661;-81
2022/10/11 02:14:10;;;;;;;6.17;1.57;;;9.10;99.90;;;;;;5053684;28;20210;-81
2022/10/11 02:16:42;;;;;;;3.80;1.43;;;9.10;99.90;;;;;;5054328;28;20213;-80
2022/10/11 02:19:10;;;;;;;3.73;1.27;;;9.00;99.90;;;;;;5053694;28;20189;-80
2022/10/11 02:21:41;;;;;;;4.47;1.37;;;9.00;99.90;;;;;;5054734;28;20208;-80
2022/10/11 02:24:12;;;;;;;5.13;1.30;;;8.90;99.90;;;;;;5054144;28;20205;-81
2022/10/11 02:26:43;;;;;;;3.07;1.10;;;8.90;99.90;;;;;;5054094;28;20632;-81
2022/10/11 02:29:13;;;;;;;4.40;1.43;;;8.90;99.90;;;;;;5064283;28;20206;-81
2022/10/11 02:31:43;;;;;;;4.77;1.60;;;8.80;99.90;;;;;;5074115;28;20627;-81
2022/10/11 02:34:14;;;;;;;4.63;1.47;;;8.80;99.90;;;;;;5073330;28;20281;-81
2022/10/11 02:36:47;;;;;;;3.97;1.30;;;8.80;99.90;;;;;;5074501;28;20221;-81
2022/10/11 02:39:21;;;;;;;9.47;1.40;;;8.80;99.90;;;;;;5070679;28;20531;-79
2022/10/11 02:41:51;;;;;;;6.07;1.90;;;8.70;99.90;;;;;;5054343;28;20277;-79
2022/10/11 02:44:26;;;;;;;6.23;1.53;;;8.70;99.90;;;;;;5068361;28;20205;-81
2022/10/11 02:46:55;;;;;;;5.20;1.70;;;8.70;99.90;;;;;;5073955;28;20541;-80
2022/10/11 02:49:22;;;;;;;6.53;2.20;;;8.70;99.90;;;;;;5073923;28;20198;-80
2022/10/11 02:51:49;;;;;;;7.03;1.50;;;8.60;99.90;;;;;;5072688;28;20196;-80
2022/10/11 02:54:16;;;;;;;5.03;1.47;;;8.60;99.90;;;;;;5053706;28;20260;-80
2022/10/11 02:56:43;;;;;;;4.97;1.73;;;8.60;99.90;;;;;;5060460;28;20231;-80
2022/10/11 02:59:10;;;;;;;3.90;1.47;;;8.50;99.90;;;;;;5074114;28;20201;-81
2022/10/11 03:01:37;;;;;;;5.50;1.70;;;8.50;99.90;;;;;;5073959;28;20197;-81
2022/10/11 03:04:05;;;;;;;5.10;1.23;;;8.50;99.90;;;;;;5061666;28;20212;-81
2022/10/11 03:06:32;;;;;;;3.97;1.67;;;8.40;99.90;;;;;;5053597;28;20213;-81
2022/10/11 03:08:59;;;;;;;6.43;1.53;;;8.40;99.90;;;;;;5053417;28;20241;-81
2022/10/11 03:11:26;;;;;;;7.77;1.87;;;8.40;99.90;;;;;;5054087;28;20293;-81
2022/10/11 03:13:53;;;;;;;4.83;1.50;;;8.40;99.90;;;;;;5054053;28;20202;-81
2022/10/11 03:16:20;;;;;;;5.40;2.23;;;8.40;99.90;;;;;;5054008;28;20662;-81
2022/10/11 03:18:47;;;;;;;4.23;1.57;;;8.30;99.90;;;;;;5053823;28;20522;-81
2022/10/11 03:21:15;;;;;;;5.13;1.70;;;8.40;99.90;;;;;;5053927;28;20237;-82
2022/10/11 03:23:42;;;;;;;6.57;2.03;;;8.30;99.90;;;;;;5053459;28;20196;-81
2022/10/11 03:26:09;;;;;;;8.37;1.50;;;8.30;99.90;;;;;;5053742;28;20209;-81
2022/10/11 03:28:36;;;;;;;8.47;2.50;;;8.30;99.90;;;;;;5052733;28;20212;-80
2022/10/11 03:31:03;;;;;;;7.07;1.63;;;8.30;99.90;;;;;;5054004;28;20289;-81
2022/10/11 03:33:30;;;;;;;5.50;1.70;;;8.30;99.90;;;;;;5053474;28;20276;-81
2022/10/11 03:35:56;;;;;;;6.17;2.00;;;8.30;99.90;;;;;;5067915;28;20217;-81
2022/10/11 03:38:25;;;;;;;7.40;1.87;;;8.30;99.90;;;;;;5073220;28;20197;-80
2022/10/11 03:40:51;;;;;;;7.30;2.00;;;8.30;99.90;;;;;;5072727;28;20549;-82
2022/10/11 03:43:19;;;;;;;8.43;2.20;;;8.30;99.90;;;;;;5072271;28;20208;-79
2022/10/11 03:45:46;;;;;;;5.93;1.70;;;8.30;99.90;;;;;;5072925;28;20598;-81
2022/10/11 03:48:12;;;;;;;7.60;2.10;;;8.30;99.90;;;;;;5072513;28;20276;-81
2022/10/11 03:50:40;;;;;;;7.07;1.80;;;8.40;99.90;;;;;;5055654;28;20216;-80
2022/10/11 03:53:07;;;;;;;5.43;1.90;;;8.40;99.90;;;;;;5057539;28;20261;-81
2022/10/11 03:55:38;;;;;;;6.37;2.07;;;8.40;99.90;;;;;;5072937;28;20221;-81
2022/10/11 03:58:05;;;;;;;8.83;2.40;;;8.40;99.90;;;;;;5071723;28;20197;-81
2022/10/11 04:00:32;;;;;;;7.43;2.27;;;8.40;99.90;;;;;;5072511;28;20202;-82
2022/10/11 04:02:59;;;;;;;4.13;1.70;;;8.40;99.90;;;;;;5073614;28;20193;-81
2022/10/11 04:05:26;;;;;;;6.20;1.90;;;8.40;99.90;;;;;;5071881;28;20632;-81
2022/10/11 04:07:53;;;;;;;3.27;1.60;;;8.40;99.90;;;;;;5073049;28;20553;-82
2022/10/11 04:10:20;;;;;;;6.00;1.97;;;8.40;99.90;;;;;;5072876;28;20280;-82
2022/10/11 04:12:48;;;;;;;6.10;2.53;;;8.40;99.90;;;;;;5073351;28;20292;-82
2022/10/11 04:15:15;;;;;;;6.47;2.07;;;8.40;99.90;;;;;;5073097;28;20197;-81
2022/10/11 04:17:42;;;;;;;6.20;2.10;;;8.50;99.90;;;;;;5052832;28;20225;-82
2022/10/11 04:20:10;;;;;;;4.33;2.07;;;8.40;99.90;;;;;;5053496;28;20255;-82
2022/10/11 04:22:37;;;;;;;5.70;2.03;;;8.40;99.90;;;;;;5053220;28;20198;-82
2022/10/11 04:25:05;;;;;;;7.43;2.40;;;8.40;99.90;;;;;;5053084;28;20277;-82
2022/10/11 04:27:31;;;;;;;4.50;1.87;;;8.40;99.90;;;;;;5056735;28;20289;-81
2022/10/11 04:30:00;;;;;;;3.63;1.83;;;8.40;99.90;;;;;;5057540;28;20569;-81
2022/10/11 04:32:27;;;;;;;5.23;2.03;;;8.40;99.90;;;;;;5056804;28;20206;-81
2022/10/11 04:34:54;;;;;;;6.03;2.00;;;8.40;99.90;;;;;;5057286;28;20209;-81
2022/10/11 04:37:21;;;;;;;5.43;2.30;;;8.40;99.90;;;;;;5057331;28;20316;-81
2022/10/11 04:39:48;;;;;;;6.50;2.37;;;8.40;99.90;;;;;;5056841;28;20296;-80
2022/10/11 04:42:16;;;;;;;5.33;2.60;;;8.50;99.90;;;;;;5056810;28;20264;-81
2022/10/11 04:44:43;;;;;;;6.60;2.27;;;8.50;99.90;;;;;;5040120;28;20198;-80
2022/10/11 04:47:11;;;;;;;4.97;2.27;;;8.50;99.90;;;;;;5074890;28;20238;-81
2022/10/11 04:49:38;;;;;;;8.40;2.53;;;8.50;99.90;;;;;;5076865;28;20284;-81
2022/10/11 04:52:05;;;;;;;4.00;2.10;;;8.50;99.90;;;;;;5076811;28;20262;-80
2022/10/11 04:54:32;;;;;;;5.90;2.87;;;8.60;99.90;;;;;;5061883;28;20583;-81
2022/10/11 04:56:59;;;;;;;5.20;2.07;;;8.60;99.90;;;;;;5056445;28;20308;-80
2022/10/11 04:59:25;;;;;;;8.27;2.97;;;8.60;99.90;;;;;;5056650;28;20554;-80
2022/10/11 05:01:52;;;;;;;8.30;3.00;;;8.60;99.90;;;;;;5056159;28;20680;-81
2022/10/11 05:04:21;;;;;;;8.70;3.33;;;8.60;99.90;;;;;;5057302;28;20293;-81
2022/10/11 05:06:47;;;;;;;7.03;3.07;;;8.60;99.90;;;;;;5056368;28;20233;-81
2022/10/11 05:09:14;;;;;;;9.10;3.00;;;8.70;99.90;;;;;;5055601;28;20238;-79
2022/10/11 05:11:41;;;;;;;7.60;2.50;;;8.70;99.90;;;;;;5056222;28;20202;-80
2022/10/11 05:14:08;;;;;;;5.40;2.13;;;8.70;99.90;;;;;;5056381;28;20293;-81
2022/10/11 05:16:35;;;;;;;6.77;2.80;;;8.80;99.90;;;;;;5056241;28;20221;-79
2022/10/11 05:19:02;;;;;;;6.20;3.07;;;8.80;99.90;;;;;;5056471;28;20291;-80
2022/10/11 05:21:30;;;;;;;6.50;2.70;;;8.70;99.90;;;;;;5073494;28;20563;-81
2022/10/11 05:23:58;;;;;;;5.93;2.43;;;8.70;99.90;;;;;;5076308;28;20708;-81
2022/10/11 05:26:27;;;;;;;12.20;2.70;;;8.70;99.90;;;;;;5063893;28;20206;-81
2022/10/11 05:28:54;;;;;;;5.63;2.53;;;8.70;99.90;;;;;;5056271;28;20210;-81
2022/10/11 05:31:22;;;;;;;7.80;2.73;;;8.70;99.90;;;;;;5056288;28;20496;-81
2022/10/11 05:33:49;;;;;;;5.70;2.13;;;8.70;99.90;;;;;;5055908;28;20198;-79
2022/10/11 05:36:16;;;;;;;5.80;2.50;;;8.60;99.90;;;;;;5055381;28;20218;-80
2022/10/11 05:38:44;;;;;;;4.57;2.00;;;8.60;99.90;;;;;;5055504;28;20609;-81
2022/10/11 05:41:13;;;;;;;4.67;2.10;;;8.60;99.90;;;;;;5055477;28;20209;-78
2022/10/11 05:43:40;;;;;;;6.67;2.23;;;8.50;99.90;;;;;;5055456;28;20201;-81
2022/10/11 05:46:07;;;;;;;5.83;2.30;;;8.50;99.90;;;;;;5056603;28;20292;-81
2022/10/11 05:48:34;;;;;;;7.03;2.77;;;8.50;99.90;;;;;;5053955;28;20202;-82
2022/10/11 05:51:02;;;;;;;5.27;2.53;;;8.50;99.90;;;;;;5054046;28;20261;-81
2022/10/11 05:53:29;;;;;;;7.33;2.80;;;8.50;99.90;;;;;;5056377;28;20194;-81
2022/10/11 05:55:58;;;;;;;6.33;2.27;;;8.50;99.90;;;;;;5056213;28;20237;-81
2022/10/11 05:58:25;;;;;;;7.47;2.73;;;8.50;99.90;;;;;;5055888;28;20221;-82
2022/10/11 06:00:53;;;;;;;6.53;2.80;;;8.50;99.90;;;;;;5065456;28;20201;-82
2022/10/11 06:03:20;;;;;;;5.40;2.63;;;8.50;99.90;;;;;;5075353;28;20287;-83
2022/10/11 06:05:47;;;;;;;5.20;2.67;;;8.50;99.90;;;;;;5069556;28;20590;-82
2022/10/11 06:08:15;;;;;;;6.53;2.80;;;8.50;99.90;;;;;;5055521;28;20788;-82
2022/10/11 06:10:43;;;;;;;7.20;2.90;;;8.50;99.90;;;;;;5055776;28;20232;-83
2022/10/11 06:13:11;;;;;;;9.77;3.77;;;8.50;99.90;;;;;;5055650;28;20212;-81
2022/10/11 06:15:39;;;;;;;4.60;2.70;;;8.50;99.90;;;;;;5055675;28;20190;-83
2022/10/11 06:18:06;;;;;;;5.20;2.30;;;8.50;99.90;;;;;;5054919;28;20229;-80
2022/10/11 06:20:33;;;;;;;9.87;3.43;;;8.50;99.90;;;;;;5073070;28;20497;-82
2022/10/11 06:23:00;;;;;;;5.77;2.70;;;8.50;99.90;;;;;;5074534;28;20190;-82
2022/10/11 06:25:27;;;;;;;7.43;3.10;;;8.50;99.90;;;;;;5074764;28;20205;-82
2022/10/11 06:27:54;;;;;;;6.47;2.73;;;8.50;99.90;;;;;;5063289;28;20194;-81
2022/10/11 06:30:22;;;;;;;8.60;3.00;;;8.50;99.90;;;;;;5054877;28;20204;-79
2022/10/11 06:32:49;;;;;;;8.10;3.50;;;8.60;99.90;;;;;;5053746;28;20205;-80
2022/10/11 06:35:16;;;;;;;7.47;3.47;;;8.60;99.90;;;;;;5054900;28;20200;-82
2022/10/11 06:37:42;;;;;;;7.73;3.30;;;8.60;99.90;;;;;;5054426;28;20217;-80
2022/10/11 06:40:10;;;;;;;6.97;3.37;;;8.70;99.90;;;;;;5054721;28;20206;-82
2022/10/11 06:42:37;;;;;;;7.20;3.20;;;8.70;99.90;;;;;;5054486;28;20198;-82
2022/10/11 06:45:05;;;;;;;8.87;3.47;;;8.70;99.90;;;;;;5054495;28;20408;-82
2022/10/11 06:47:33;;;;;;;7.57;3.33;;;8.70;99.90;;;;;;5053956;28;20202;-82
2022/10/11 06:50:00;;;;;;;6.97;3.27;;;8.70;99.90;;;;;;5054009;28;20569;-82
2022/10/11 06:52:27;;;;;;;12.77;4.00;;;8.70;99.90;;;;;;5053842;28;20213;-83
2022/10/11 06:54:54;;;;;;;8.60;3.30;;;8.80;99.90;;;;;;5061271;28;20551;-82
2022/10/11 06:57:20;;;;;;;4.90;3.03;;;8.80;99.90;;;;;;5073561;28;20241;-83
2022/10/11 06:59:47;;;;;;;9.93;3.93;;;8.80;99.90;;;;;;5062718;28;20548;-82
2022/10/11 07:02:14;;;;;;;8.73;3.40;;;8.80;99.90;;;;;;5073558;28;20633;-80
2022/10/11 07:04:42;;;;;;;7.20;3.20;;;8.80;99.90;;;;;;5073098;28;20622;-82
2022/10/11 07:07:12;;;;;;;12.20;5.00;;;8.80;99.90;;;;;;5071842;28;20507;-81
2022/10/11 07:09:39;;;;;;;7.03;3.50;;;8.80;99.90;;;;;;5072611;28;20225;-82
2022/10/11 07:12:07;;;;;;;7.80;3.80;;;8.90;99.90;;;;;;5072608;28;20220;-82
2022/10/11 07:14:33;;;;;;;7.70;3.63;;;8.90;99.90;;;;;;5070364;28;20201;-82
2022/10/11 07:17:01;;;;;;;8.00;3.13;;;8.90;99.90;;;;;;5072428;28;20225;-82
2022/10/11 07:19:28;;;;;;;6.53;3.20;;;8.90;99.90;;;;;;5072617;28;20240;-82
2022/10/11 07:21:56;;;;;;;6.77;3.07;;;8.90;99.90;;;;;;5070495;28;20804;-82
2022/10/11 07:24:23;;;;;;;5.13;3.00;;;8.90;99.90;;;;;;5073695;28;20186;-82
2022/10/11 07:26:50;;;;;;;15.10;4.40;;;8.90;99.90;;;;;;5073631;28;20193;-82
2022/10/11 07:29:17;;;;;;;7.73;3.67;;;8.90;99.90;;;;;;5061410;28;20532;-82
2022/10/11 07:31:44;;;;;;;10.00;4.10;;;9.00;99.90;;;;;;5053336;28;20630;-82
2022/10/11 07:34:11;;;;;;;9.07;4.10;;;9.00;99.90;;;;;;5053195;28;20212;-82
2022/10/11 07:36:38;;;;;;;12.63;4.13;;;9.00;99.90;;;;;;5053346;28;20222;-82
2022/10/11 07:39:08;;;;;;;7.83;3.20;;;9.00;99.90;;;;;;5065026;28;20287;-83
2022/10/11 07:41:35;;;;;;;6.67;3.27;;;9.00;99.90;;;;;;5090625;28;20492;-83
2022/10/11 07:44:02;;;;;;;8.13;3.63;;;9.00;99.90;;;;;;5071272;28;20206;-83
2022/10/11 07:46:29;;;;;;;6.40;3.80;;;9.00;99.90;;;;;;5053904;28;20212;-83
2022/10/11 07:48:56;;;;;;;10.03;3.83;;;9.00;99.90;;;;;;5072778;28;20264;-83
2022/10/11 07:51:24;;;;;;;9.10;4.23;;;9.00;99.90;;;;;;5073841;28;20229;-82
2022/10/11 07:53:53;;;;;;;8.27;3.30;;;9.10;99.90;;;;;;5055170;28;20511;-84
2022/10/11 07:56:22;;;;;;;9.97;3.33;;;9.20;99.90;;;;;;5069446;28;20632;-81
2022/10/11 07:58:51;;;;;;;14.93;2.90;;;9.30;99.90;;;;;;5082126;28;20205;-81
2022/10/11 08:01:18;;;;;;;8.37;2.90;;;9.40;99.90;;;;;;5073043;28;20280;-82
2022/10/11 08:03:45;;;;;;;6.27;1.90;;;9.50;99.90;;;;;;5072463;28;20593;-80
2022/10/11 08:06:15;;;;;;;10.37;2.50;;;9.60;99.90;;;;;;5073606;28;20196;-81
2022/10/11 08:08:42;;;;;;;14.20;2.80;;;9.70;99.90;;;;;;5072251;28;20225;-81
2022/10/11 08:11:09;;;;;;;11.43;2.17;;;9.80;99.90;;;;;;5069532;28;20205;-80
2022/10/11 08:13:38;;;;;;;10.87;2.27;;;10.00;99.90;;;;;;5068177;28;20522;-81
2022/10/11 08:16:11;;;;;;;13.20;2.80;;;10.10;99.90;;;;;;5060688;28;20264;-81
2022/10/11 08:18:38;;;;;;;16.07;2.67;;;10.10;99.90;;;;;;5069336;28;20311;-81
2022/10/11 08:21:09;;;;;;;12.30;2.60;;;10.30;99.90;;;;;;5053894;28;20545;-81
2022/10/11 08:23:36;;;;;;;9.23;2.13;;;10.40;99.90;;;;;;5067887;28;20570;-81
2022/10/11 08:26:04;;;;;;;11.40;2.57;;;10.50;99.90;;;;;;5072531;28;20193;-81
2022/10/11 08:28:31;;;;;;;9.73;2.20;;;10.60;99.90;;;;;;5072600;28;20202;-81
2022/10/11 08:30:59;;;;;;;14.47;2.90;;;10.70;99.90;;;;;;5070527;28;20203;-81
2022/10/11 08:33:26;;;;;;;11.23;2.53;;;10.70;99.90;;;;;;5071216;28;20579;-80
2022/10/11 08:35:55;;;;;;;12.00;2.53;;;10.80;99.90;;;;;;5063209;28;20487;-77
2022/10/11 08:38:23;;;;;;;11.67;2.27;;;10.80;99.90;;;;;;5070950;28;20205;-78
2022/10/11 08:40:53;;;;;;;9.73;2.47;;;10.90;99.90;;;;;;5066516;28;20236;-78
2022/10/11 08:43:36;;;;;;;15.97;2.73;;;11.00;99.90;;;;;;5062976;28;20221;-79
2022/10/11 08:46:06;;;;;;;3.80;1.70;;;11.00;99.90;;;;;;5069640;28;20205;-78
2022/10/11 08:48:36;;;;;;;9.93;2.83;;;11.10;99.90;;;;;;5071418;28;20272;-80
2022/10/11 08:51:12;;;;;;;5.70;1.80;;;11.20;99.90;;;;;;5070928;28;20284;-79
2022/10/11 08:53:45;;;;;;;14.90;2.60;;;11.30;99.90;;;;;;5071427;28;20187;-80
2022/10/11 08:56:14;;;;;;;9.47;2.00;;;11.40;99.90;;;;;;5072723;28;20244;-81
2022/10/11 08:58:48;;;;;;;6.10;2.03;;;11.40;99.90;;;;;;5072452;28;20617;-80
2022/10/11 09:01:19;;;;;;;10.40;2.23;;;11.50;99.90;;;;;;5052930;28;20206;-80
2022/10/11 09:03:48;;;;;;;13.63;2.43;;;11.60;99.90;;;;;;5066243;28;20201;-82
2022/10/11 09:06:21;;;;;;;8.23;2.10;;;11.60;99.90;;;;;;5072195;28;20277;-80
2022/10/11 09:09:10;;;;;;;8.47;2.57;;;11.70;99.90;;;;;;5065635;28;20230;-81
2022/10/11 09:11:50;;;;;;;10.67;2.37;;;11.70;99.90;;;;;;5052192;28;20190;-80
2022/10/11 09:14:39;;;;;;;6.90;2.00;;;11.80;99.90;;;;;;5071695;28;20423;-81
2022/10/11 09:17:17;;;;;;;5.37;1.43;;;11.80;99.90;;;;;;5056400;28;20190;-82
2022/10/11 09:20:17;;;;;;;7.83;2.47;;;11.90;99.90;;;;;;5063183;28;20203;-80
2022/10/11 09:22:52;;;;;;;9.13;1.97;;;12.00;99.90;;;;;;5069308;28;20204;-80
2022/10/11 09:25:24;;;;;;;8.03;1.87;;;12.00;99.90;;;;;;5074368;28;20591;-77
2022/10/11 09:28:03;;;;;;;9.77;2.73;;;12.10;99.90;;;;;;5067723;28;20217;-78
2022/10/11 09:30:30;;;;;;;8.23;1.90;;;12.30;99.90;;;;;;5075594;28;20193;-80
2022/10/11 09:33:12;;;;;;;15.23;3.87;;;12.50;99.90;;;;;;5080770;28;20812;-77
2022/10/11 09:35:42;;;;;;;10.37;3.43;;;12.60;99.90;;;;;;5053688;28;20210;-79
2022/10/11 09:38:18;;;;;;;10.67;3.03;;;12.70;99.90;;;;;;5055631;28;20220;-81
2022/10/11 09:40:54;;;;;;;8.50;2.93;;;12.90;99.90;;;;;;5072232;28;20602;-81
2022/10/11 09:43:21;;;;;;;7.30;2.13;;;12.90;99.90;;;;;;5074447;28;20189;-80
2022/10/11 09:45:48;;;;;;;11.60;2.33;;;13.00;99.90;;;;;;5075474;28;20212;-82
2022/10/11 09:48:22;;;;;;;10.27;1.83;;;13.10;99.90;;;;;;5072958;28;20197;-80
2022/10/11 09:50:51;;;;;;;10.50;2.60;;;13.20;99.90;;;;;;5055254;28;20683;-81
2022/10/11 09:53:18;;;;;;;7.53;1.70;;;13.30;99.90;;;;;;5054941;28;20289;-80
2022/10/11 09:55:50;;;;;;;8.67;2.30;;;13.40;99.90;;;;;;5053999;28;20578;-79
2022/10/11 09:58:30;;;;;;;4.27;1.50;;;13.50;99.90;;;;;;5055062;28;20217;-81
2022/10/11 10:00:59;;;;;;;7.33;2.03;;;13.60;99.90;;;;;;5054949;28;20205;-81
2022/10/11 10:03:32;;;;;;;4.57;1.40;;;13.50;99.90;;;;;;5054478;28;20198;-80
2022/10/11 10:06:08;;;;;;;7.70;2.20;;;13.50;99.90;;;;;;5054713;28;20200;-79
2022/10/11 10:08:36;;;;;;;11.03;3.00;;;13.50;99.90;;;;;;5054056;28;20231;-80
2022/10/11 10:11:05;;;;;;;8.73;2.67;;;13.50;99.90;;;;;;5053259;28;20190;-81
2022/10/11 10:13:43;;;;;;;7.43;1.73;;;13.40;99.90;;;;;;5053797;28;20680;-79
2022/10/11 10:16:21;;;;;;;5.43;1.70;;;13.40;99.90;;;;;;5053781;28;20212;-77
2022/10/11 10:18:55;;;;;;;9.23;1.77;;;13.40;99.90;;;;;;5053846;28;20811;-78
2022/10/11 10:21:31;;;;;;;6.80;1.67;;;13.40;99.90;;;;;;5054417;28;20196;-78
2022/10/11 10:24:02;;;;;;;6.50;1.63;;;13.50;99.90;;;;;;5053573;28;20194;-79
2022/10/11 10:26:30;;;;;;;8.67;1.70;;;13.50;99.90;;;;;;5053968;28;20190;-78
2022/10/11 10:29:04;;;;;;;7.27;2.33;;;13.50;99.90;;;;;;5066037;28;20197;-78
2022/10/11 10:31:35;;;;;;;8.80;1.43;;;13.60;99.90;;;;;;5075846;28;20206;-79
2022/10/11 10:34:16;;;;;;;6.47;1.80;;;13.70;99.90;;;;;;5063576;28;20193;-77
2022/10/11 10:36:54;;;;;;;6.20;1.80;;;13.70;99.90;;;;;;5073496;28;20193;-78
2022/10/11 10:39:31;;;;;;;5.37;1.83;;;13.70;99.90;;;;;;5077105;28;20577;-78
2022/10/11 10:42:05;;;;;;;8.37;2.43;;;13.70;99.90;;;;;;5067046;28;20204;-77
2022/10/11 10:44:36;;;;;;;4.50;1.30;;;13.80;99.90;;;;;;5074239;28;20565;-79
2022/10/11 10:47:12;;;;;;;5.73;1.43;;;13.80;99.90;;;;;;5067056;28;20193;-78
2022/10/11 10:49:47;;;;;;;6.70;1.70;;;13.80;99.90;;;;;;5053550;28;20223;-77
2022/10/11 10:52:51;;;;;;;5.17;1.60;;;13.90;99.90;;;;;;5072429;28;20188;-78
2022/10/11 10:55:36;;;;;;;4.70;1.57;;;13.80;99.90;;;;;;5066523;28;20197;-78
2022/10/11 10:58:24;;;;;;;6.40;1.70;;;13.80;99.90;;;;;;5072964;28;20228;-78
2022/10/11 11:01:00;;;;;;;9.40;1.93;;;13.70;99.90;;;;;;5055575;28;20209;-79
2022/10/11 11:03:39;;;;;;;9.73;1.80;;;13.80;99.90;;;;;;5056532;28;20190;-78
2022/10/11 11:06:20;;;;;;;7.13;2.22;;;13.90;99.90;;;;;;5057696;28;20259;-80
2022/10/11 11:09:06;;;;;;;6.13;1.60;;;14.10;99.90;;;;;;5059879;28;20220;-80
2022/10/11 11:11:45;;;;;;;6.00;1.70;;;14.10;99.90;;;;;;5073340;28;20199;-80
2022/10/11 11:14:27;;;;;;;9.40;2.40;;;14.10;99.90;;;;;;5071054;28;20292;-79
2022/10/11 11:17:05;;;;;;;8.57;2.17;;;14.10;99.90;;;;;;5073350;28;20204;-80
2022/10/11 11:19:45;;;;;;;9.07;1.85;;;14.10;99.90;;;;;;5056413;28;20313;-81
2022/10/11 11:22:25;;;;;;;7.78;1.60;;;14.00;99.90;;;;;;5053572;28;20264;-80
2022/10/11 11:25:00;;;;;;;5.87;1.40;;;13.90;99.90;;;;;;5053147;28;20709;-80
2022/10/11 11:27:47;;;;;;;3.92;1.50;;;13.90;99.90;;;;;;5052163;28;20628;-80
2022/10/11 11:30:20;;;;;;;5.57;1.50;;;13.90;99.90;;;;;;5053005;28;20192;-80
2022/10/11 11:32:59;;;;;;;7.03;1.80;;;14.10;99.90;;;;;;5053160;28;20201;-80
2022/10/11 11:35:30;;;;;;;9.57;1.80;;;14.20;99.90;;;;;;5051927;28;20221;-80
2022/10/11 11:38:06;;;;;;;7.53;1.95;;;14.30;99.90;;;;;;5051783;28;20236;-80
2022/10/11 11:40:39;;;;;;;7.13;1.48;;;14.40;99.90;;;;;;5051914;28;20203;-80
2022/10/11 11:43:12;;;;;;;9.15;1.67;;;14.40;99.90;;;;;;5051643;28;20244;-79
2022/10/11 11:45:47;;;;;;;10.00;1.70;;;14.40;99.90;;;;;;5052415;28;20193;-79
2022/10/11 11:48:18;;;;;;;3.73;1.10;;;14.30;99.90;;;;;;5050988;28;20193;-78
2022/10/11 11:50:54;;;;;;;42.17;17.33;;;14.30;99.90;;;;;;5052186;28;20190;-79
2022/10/11 11:53:32;;;;;;;11.20;3.88;;;14.40;99.90;;;;;;5051813;28;20204;-79
2022/10/11 11:56:03;;;;;;;6.82;1.73;;;14.40;99.90;;;;;;5051100;28;20296;-79
2022/10/11 11:58:38;;;;;;;6.85;1.50;;;14.50;99.90;;;;;;5051957;28;20216;-79
2022/10/11 12:01:13;;;;;;;6.47;1.85;;;14.50;99.90;;;;;;5068763;28;20770;-79
2022/10/11 12:03:44;;;;;;;3.90;1.40;;;14.50;99.90;;;;;;5060077;28;20512;-80
2022/10/11 12:06:23;;;;;;;8.13;2.07;;;14.50;99.90;;;;;;5052290;28;20295;-79
2022/10/11 12:09:04;;;;;;;3.90;1.93;;;14.40;99.90;;;;;;5060058;28;20301;-79
2022/10/11 12:11:42;;;;;;;6.72;1.80;;;14.60;99.90;;;;;;5052189;28;20192;-79
2022/10/11 12:14:26;;;;;;;4.53;1.70;;;14.70;99.90;;;;;;5052073;28;20198;-79
2022/10/11 12:17:14;;;;;;;8.48;2.17;;;14.70;99.90;;;;;;5051658;28;20206;-79
2022/10/11 12:19:57;;;;;;;3.40;1.40;;;14.80;99.90;;;;;;5051952;28;20222;-78
2022/10/11 12:22:41;;;;;;;6.95;1.80;;;14.90;99.90;;;;;;5052448;28;20316;-78
2022/10/11 12:25:37;;;;;;;4.60;1.40;;;15.10;99.90;;;;;;5052237;28;20273;-80
2022/10/11 12:28:37;;;;;;;4.40;1.30;;;15.20;96.80;;;;;;5052620;28;20196;-78
2022/10/11 12:31:16;;;;;;;3.88;1.55;;;15.20;99.90;;;;;;5052533;28;20201;-80
2022/10/11 12:33:52;;;;;;;6.32;1.77;;;15.20;99.90;;;;;;5056651;28;20210;-79
2022/10/11 12:36:32;;;;;;;6.40;1.95;;;15.10;93.80;;;;;;5054903;28;20194;-77
2022/10/11 12:39:51;;;;;;;4.05;1.67;;;15.00;94.80;;;;;;5050577;28;20629;-78
2022/10/11 12:42:31;;;;;;;11.02;1.80;;;15.00;90.00;;;;;;5051842;28;20205;-80
2022/10/11 12:45:31;;;;;;;6.10;1.50;;;14.90;78.30;;;;;;5051103;28;20200;-77
2022/10/11 12:48:31;;;;;;;6.55;1.60;;;14.90;98.70;;;;;;5054151;28;20205;-77
2022/10/11 12:51:15;;;;;;;10.38;1.77;;;14.90;99.90;;;;;;5070481;28;20502;-77
2022/10/11 12:54:12;;;;;;;6.97;2.28;;;14.90;99.90;;;;;;5055251;28;20609;-76
2022/10/11 12:56:48;;;;;;;5.28;1.55;;;14.90;99.90;;;;;;5055091;28;20253;-75
2022/10/11 12:59:18;;;;;;;7.57;2.15;;;15.00;99.90;;;;;;5054689;28;20316;-75
2022/10/11 13:01:51;;;;;;;5.50;1.67;;;15.10;99.90;;;;;;5055012;28;20538;-76
2022/10/11 13:04:22;;;;;;;6.85;1.75;;;15.30;99.90;;;;;;5067770;28;20212;-78
2022/10/11 13:06:52;;;;;;;6.82;1.70;;;15.40;82.70;;;;;;5074019;28;20808;-79
2022/10/11 13:09:27;;;;;;;15.15;4.88;;;15.50;82.60;;;;;;5075336;28;20235;-76
2022/10/11 13:11:58;;;;;;;12.50;3.92;;;15.50;71.10;;;;;;5064712;28;20212;-78
2022/10/11 13:14:27;;;;;;;22.75;7.60;;;15.40;92.20;;;;;;5055022;28;20222;-72
2022/10/11 13:17:04;;;;;;;10.73;4.07;;;15.30;99.90;;;;;;5055615;28;20202;-76